sensor_id;sensor_type;location;lat;lon;timestamp;P1;durP1;ratioP1;P2;durP2;ratioP2
27003;SDS011;14546;47.590;19.022;2022-11-22T00:01:04;277.33;;;46.70;;
27003;SDS011;14546;47.590;19.022;2022-11-22T00:03:31;199.85;;;49.47;;
27003;SDS011;14546;47.590;19.022;2022-11-22T00:05:56;352.08;;;55.50;;
27003;SDS011;14546;47.590;19.022;2022-11-22T00:08:22;268.95;;;56.60;;
27003;SDS011;14546;47.590;19.022;2022-11-22T00:10:49;181.27;;;49.85;;
27003;SDS011;14546;47.590;19.022;2022-11-22T00:13:16;125.82;;;44.85;;
27003;SDS011;14546;47.590;19.022;2022-11-22T00:15:42;98.18;;;42.42;;
27003;SDS011;14546;47.590;19.022;2022-11-22T00:18:08;116.40;;;43.50;;
27003;SDS011;14546;47.590;19.022;2022-11-22T00:20:34;108.90;;;44.80;;
27003;SDS011;14546;47.590;19.022;2022-11-22T00:23:00;102.40;;;44.10;;
27003;SDS011;14546;47.590;19.022;2022-11-22T00:25:26;108.65;;;41.83;;
27003;SDS011;14546;47.590;19.022;2022-11-22T00:27:52;144.88;;;42.33;;
27003;SDS011;14546;47.590;19.022;2022-11-22T00:30:18;84.30;;;40.42;;
27003;SDS011;14546;47.590;19.022;2022-11-22T00:32:45;109.03;;;42.92;;
27003;SDS011;14546;47.590;19.022;2022-11-22T00:35:11;158.40;;;46.55;;
27003;SDS011;14546;47.590;19.022;2022-11-22T00:37:37;138.52;;;43.00;;
27003;SDS011;14546;47.590;19.022;2022-11-22T00:40:03;98.28;;;41.40;;
27003;SDS011;14546;47.590;19.022;2022-11-22T00:42:30;106.07;;;41.50;;
27003;SDS011;14546;47.590;19.022;2022-11-22T00:44:56;93.35;;;39.90;;
27003;SDS011;14546;47.590;19.022;2022-11-22T00:47:22;221.13;;;43.28;;
27003;SDS011;14546;47.590;19.022;2022-11-22T00:49:48;202.30;;;42.03;;
27003;SDS011;14546;47.590;19.022;2022-11-22T00:52:14;185.32;;;41.20;;
27003;SDS011;14546;47.590;19.022;2022-11-22T00:54:40;179.88;;;40.42;;
27003;SDS011;14546;47.590;19.022;2022-11-22T00:57:06;149.73;;;43.47;;
27003;SDS011;14546;47.590;19.022;2022-11-22T00:59:32;142.95;;;39.63;;
27003;SDS011;14546;47.590;19.022;2022-11-22T01:01:58;175.05;;;40.60;;
27003;SDS011;14546;47.590;19.022;2022-11-22T01:04:24;307.48;;;45.88;;
27003;SDS011;14546;47.590;19.022;2022-11-22T01:06:50;136.20;;;40.40;;
27003;SDS011;14546;47.590;19.022;2022-11-22T01:09:17;120.22;;;39.08;;
27003;SDS011;14546;47.590;19.022;2022-11-22T01:11:43;244.13;;;44.90;;
27003;SDS011;14546;47.590;19.022;2022-11-22T01:14:09;147.60;;;40.20;;
27003;SDS011;14546;47.590;19.022;2022-11-22T01:16:35;271.52;;;44.13;;
27003;SDS011;14546;47.590;19.022;2022-11-22T01:19:01;181.32;;;38.42;;
27003;SDS011;14546;47.590;19.022;2022-11-22T01:21:27;288.30;;;40.80;;
27003;SDS011;14546;47.590;19.022;2022-11-22T01:23:53;289.65;;;40.25;;
27003;SDS011;14546;47.590;19.022;2022-11-22T01:26:19;193.82;;;38.22;;
27003;SDS011;14546;47.590;19.022;2022-11-22T01:28:45;209.77;;;39.55;;
27003;SDS011;14546;47.590;19.022;2022-11-22T01:31:11;238.60;;;37.50;;
27003;SDS011;14546;47.590;19.022;2022-11-22T01:33:37;476.58;;;42.25;;
27003;SDS011;14546;47.590;19.022;2022-11-22T01:36:03;686.72;;;50.83;;
27003;SDS011;14546;47.590;19.022;2022-11-22T01:38:29;450.08;;;43.17;;
27003;SDS011;14546;47.590;19.022;2022-11-22T01:40:55;135.18;;;33.17;;
27003;SDS011;14546;47.590;19.022;2022-11-22T01:43:22;604.80;;;42.60;;
27003;SDS011;14546;47.590;19.022;2022-11-22T01:45:51;101.35;;;31.25;;
27003;SDS011;14546;47.590;19.022;2022-11-22T01:48:28;867.88;;;47.03;;
27003;SDS011;14546;47.590;19.022;2022-11-22T01:51:03;173.25;;;32.42;;
27003;SDS011;14546;47.590;19.022;2022-11-22T01:53:32;238.18;;;31.80;;
27003;SDS011;14546;47.590;19.022;2022-11-22T01:55:59;213.77;;;33.60;;
27003;SDS011;14546;47.590;19.022;2022-11-22T01:58:27;412.27;;;38.40;;
27003;SDS011;14546;47.590;19.022;2022-11-22T02:00:55;140.00;;;31.05;;
27003;SDS011;14546;47.590;19.022;2022-11-22T02:03:21;101.97;;;29.48;;
27003;SDS011;14546;47.590;19.022;2022-11-22T02:05:47;199.85;;;32.55;;
27003;SDS011;14546;47.590;19.022;2022-11-22T02:08:16;122.47;;;31.58;;
27003;SDS011;14546;47.590;19.022;2022-11-22T02:10:45;229.20;;;36.50;;
27003;SDS011;14546;47.590;19.022;2022-11-22T02:13:12;592.97;;;42.97;;
27003;SDS011;14546;47.590;19.022;2022-11-22T02:15:39;271.40;;;37.58;;
27003;SDS011;14546;47.590;19.022;2022-11-22T02:18:05;527.88;;;39.65;;
27003;SDS011;14546;47.590;19.022;2022-11-22T02:20:31;317.58;;;35.33;;
27003;SDS011;14546;47.590;19.022;2022-11-22T02:23:02;285.20;;;33.47;;
27003;SDS011;14546;47.590;19.022;2022-11-22T02:28:01;389.58;;;35.88;;
27003;SDS011;14546;47.590;19.022;2022-11-22T02:30:28;451.38;;;37.55;;
27003;SDS011;14546;47.590;19.022;2022-11-22T02:32:54;264.50;;;33.63;;
27003;SDS011;14546;47.590;19.022;2022-11-22T02:35:21;94.15;;;30.88;;
27003;SDS011;14546;47.590;19.022;2022-11-22T02:37:48;385.33;;;37.67;;
27003;SDS011;14546;47.590;19.022;2022-11-22T02:40:14;183.10;;;29.73;;
27003;SDS011;14546;47.590;19.022;2022-11-22T02:42:42;191.80;;;32.40;;
27003;SDS011;14546;47.590;19.022;2022-11-22T02:45:09;148.93;;;29.90;;
27003;SDS011;14546;47.590;19.022;2022-11-22T02:47:35;647.53;;;39.60;;
27003;SDS011;14546;47.590;19.022;2022-11-22T02:50:01;380.75;;;32.40;;
27003;SDS011;14546;47.590;19.022;2022-11-22T02:52:27;232.65;;;32.70;;
27003;SDS011;14546;47.590;19.022;2022-11-22T02:54:53;134.05;;;30.95;;
27003;SDS011;14546;47.590;19.022;2022-11-22T02:57:19;336.42;;;36.47;;
27003;SDS011;14546;47.590;19.022;2022-11-22T02:59:45;295.25;;;35.25;;
27003;SDS011;14546;47.590;19.022;2022-11-22T03:02:11;208.85;;;33.50;;
27003;SDS011;14546;47.590;19.022;2022-11-22T03:04:37;177.40;;;32.08;;
27003;SDS011;14546;47.590;19.022;2022-11-22T03:07:03;147.20;;;33.40;;
27003;SDS011;14546;47.590;19.022;2022-11-22T03:09:29;92.95;;;30.25;;
27003;SDS011;14546;47.590;19.022;2022-11-22T03:11:56;108.03;;;31.27;;
27003;SDS011;14546;47.590;19.022;2022-11-22T03:14:22;182.10;;;31.55;;
27003;SDS011;14546;47.590;19.022;2022-11-22T03:16:48;94.07;;;30.50;;
27003;SDS011;14546;47.590;19.022;2022-11-22T03:19:14;494.92;;;42.80;;
27003;SDS011;14546;47.590;19.022;2022-11-22T03:21:40;203.50;;;31.55;;
27003;SDS011;14546;47.590;19.022;2022-11-22T03:24:07;286.98;;;36.63;;
27003;SDS011;14546;47.590;19.022;2022-11-22T03:26:33;110.88;;;31.63;;
27003;SDS011;14546;47.590;19.022;2022-11-22T03:28:59;261.70;;;34.90;;
27003;SDS011;14546;47.590;19.022;2022-11-22T03:31:25;87.10;;;30.55;;
27003;SDS011;14546;47.590;19.022;2022-11-22T03:33:51;82.57;;;30.95;;
27003;SDS011;14546;47.590;19.022;2022-11-22T03:36:17;151.20;;;34.22;;
27003;SDS011;14546;47.590;19.022;2022-11-22T03:38:43;134.57;;;33.80;;
27003;SDS011;14546;47.590;19.022;2022-11-22T03:41:09;208.98;;;36.42;;
27003;SDS011;14546;47.590;19.022;2022-11-22T03:43:36;238.90;;;37.40;;
27003;SDS011;14546;47.590;19.022;2022-11-22T03:46:02;222.38;;;38.78;;
27003;SDS011;14546;47.590;19.022;2022-11-22T03:48:28;96.05;;;34.88;;
27003;SDS011;14546;47.590;19.022;2022-11-22T03:51:01;99.97;;;33.20;;
27003;SDS011;14546;47.590;19.022;2022-11-22T03:53:27;96.43;;;33.10;;
27003;SDS011;14546;47.590;19.022;2022-11-22T03:55:53;82.68;;;31.75;;
27003;SDS011;14546;47.590;19.022;2022-11-22T03:58:19;86.32;;;31.77;;
27003;SDS011;14546;47.590;19.022;2022-11-22T04:00:45;89.55;;;32.17;;
27003;SDS011;14546;47.590;19.022;2022-11-22T04:03:11;91.55;;;32.65;;
27003;SDS011;14546;47.590;19.022;2022-11-22T04:05:37;82.97;;;32.65;;
27003;SDS011;14546;47.590;19.022;2022-11-22T04:08:03;82.80;;;31.77;;
27003;SDS011;14546;47.590;19.022;2022-11-22T04:10:29;77.95;;;30.50;;
27003;SDS011;14546;47.590;19.022;2022-11-22T04:12:55;77.22;;;30.38;;
27003;SDS011;14546;47.590;19.022;2022-11-22T04:15:21;82.30;;;31.35;;
27003;SDS011;14546;47.590;19.022;2022-11-22T04:17:47;79.68;;;31.83;;
27003;SDS011;14546;47.590;19.022;2022-11-22T04:20:14;78.75;;;31.70;;
27003;SDS011;14546;47.590;19.022;2022-11-22T04:23:03;77.47;;;33.10;;
27003;SDS011;14546;47.590;19.022;2022-11-22T04:25:30;94.35;;;33.88;;
27003;SDS011;14546;47.590;19.022;2022-11-22T04:27:57;90.82;;;35.92;;
27003;SDS011;14546;47.590;19.022;2022-11-22T04:30:23;94.03;;;35.83;;
27003;SDS011;14546;47.590;19.022;2022-11-22T04:33:09;75.85;;;33.47;;
27003;SDS011;14546;47.590;19.022;2022-11-22T04:35:35;77.35;;;34.63;;
27003;SDS011;14546;47.590;19.022;2022-11-22T04:38:01;80.32;;;34.08;;
27003;SDS011;14546;47.590;19.022;2022-11-22T04:40:27;66.38;;;32.00;;
27003;SDS011;14546;47.590;19.022;2022-11-22T04:42:53;60.38;;;31.73;;
27003;SDS011;14546;47.590;19.022;2022-11-22T04:45:37;61.60;;;29.65;;
27003;SDS011;14546;47.590;19.022;2022-11-22T04:48:04;49.00;;;28.17;;
27003;SDS011;14546;47.590;19.022;2022-11-22T04:50:30;55.42;;;29.33;;
27003;SDS011;14546;47.590;19.022;2022-11-22T04:53:15;44.53;;;26.73;;
27003;SDS011;14546;47.590;19.022;2022-11-22T04:55:42;43.38;;;25.38;;
27003;SDS011;14546;47.590;19.022;2022-11-22T04:58:08;43.28;;;23.80;;
27003;SDS011;14546;47.590;19.022;2022-11-22T05:00:34;35.00;;;21.63;;
27003;SDS011;14546;47.590;19.022;2022-11-22T05:03:00;32.15;;;20.05;;
27003;SDS011;14546;47.590;19.022;2022-11-22T05:05:27;32.45;;;19.88;;
27003;SDS011;14546;47.590;19.022;2022-11-22T05:07:53;33.60;;;19.02;;
27003;SDS011;14546;47.590;19.022;2022-11-22T05:10:19;30.52;;;18.77;;
27003;SDS011;14546;47.590;19.022;2022-11-22T05:12:46;31.00;;;18.42;;
27003;SDS011;14546;47.590;19.022;2022-11-22T05:15:12;29.13;;;18.23;;
27003;SDS011;14546;47.590;19.022;2022-11-22T05:17:38;28.80;;;17.90;;
27003;SDS011;14546;47.590;19.022;2022-11-22T05:20:04;29.08;;;17.77;;
27003;SDS011;14546;47.590;19.022;2022-11-22T05:22:31;26.60;;;17.98;;
27003;SDS011;14546;47.590;19.022;2022-11-22T05:25:16;25.15;;;16.45;;
27003;SDS011;14546;47.590;19.022;2022-11-22T05:27:42;29.25;;;17.88;;
27003;SDS011;14546;47.590;19.022;2022-11-22T05:30:08;29.05;;;17.98;;
27003;SDS011;14546;47.590;19.022;2022-11-22T05:32:35;28.90;;;18.15;;
27003;SDS011;14546;47.590;19.022;2022-11-22T05:35:01;28.10;;;18.30;;
27003;SDS011;14546;47.590;19.022;2022-11-22T05:37:27;28.45;;;18.25;;
27003;SDS011;14546;47.590;19.022;2022-11-22T05:39:53;27.13;;;18.33;;
27003;SDS011;14546;47.590;19.022;2022-11-22T05:42:19;29.30;;;18.00;;
27003;SDS011;14546;47.590;19.022;2022-11-22T05:44:45;28.90;;;18.23;;
27003;SDS011;14546;47.590;19.022;2022-11-22T05:47:11;33.40;;;18.05;;
27003;SDS011;14546;47.590;19.022;2022-11-22T05:49:37;26.77;;;18.40;;
27003;SDS011;14546;47.590;19.022;2022-11-22T05:52:03;30.20;;;18.58;;
27003;SDS011;14546;47.590;19.022;2022-11-22T05:54:29;30.98;;;19.17;;
27003;SDS011;14546;47.590;19.022;2022-11-22T05:56:55;27.60;;;17.38;;
27003;SDS011;14546;47.590;19.022;2022-11-22T05:59:21;31.08;;;18.58;;
27003;SDS011;14546;47.590;19.022;2022-11-22T06:01:47;28.60;;;16.98;;
27003;SDS011;14546;47.590;19.022;2022-11-22T06:04:13;28.02;;;17.13;;
27003;SDS011;14546;47.590;19.022;2022-11-22T06:06:39;28.08;;;17.35;;
27003;SDS011;14546;47.590;19.022;2022-11-22T06:09:05;25.95;;;16.75;;
27003;SDS011;14546;47.590;19.022;2022-11-22T06:11:31;28.50;;;17.45;;
27003;SDS011;14546;47.590;19.022;2022-11-22T06:13:58;25.98;;;17.98;;
27003;SDS011;14546;47.590;19.022;2022-11-22T06:16:25;28.10;;;17.83;;
27003;SDS011;14546;47.590;19.022;2022-11-22T06:18:52;30.02;;;17.60;;
27003;SDS011;14546;47.590;19.022;2022-11-22T06:21:19;34.95;;;18.30;;
27003;SDS011;14546;47.590;19.022;2022-11-22T06:23:47;26.05;;;17.50;;
27003;SDS011;14546;47.590;19.022;2022-11-22T06:26:14;31.23;;;18.00;;
27003;SDS011;14546;47.590;19.022;2022-11-22T06:28:41;31.00;;;18.85;;
27003;SDS011;14546;47.590;19.022;2022-11-22T06:31:08;30.67;;;18.67;;
27003;SDS011;14546;47.590;19.022;2022-11-22T06:33:35;27.52;;;17.75;;
27003;SDS011;14546;47.590;19.022;2022-11-22T06:36:02;31.45;;;18.40;;
27003;SDS011;14546;47.590;19.022;2022-11-22T06:38:28;30.17;;;18.17;;
27003;SDS011;14546;47.590;19.022;2022-11-22T06:41:04;32.55;;;19.13;;
27003;SDS011;14546;47.590;19.022;2022-11-22T06:43:31;29.38;;;18.73;;
27003;SDS011;14546;47.590;19.022;2022-11-22T06:45:58;33.13;;;20.00;;
27003;SDS011;14546;47.590;19.022;2022-11-22T06:48:24;42.22;;;20.70;;
27003;SDS011;14546;47.590;19.022;2022-11-22T06:50:51;33.08;;;20.38;;
27003;SDS011;14546;47.590;19.022;2022-11-22T06:53:17;30.17;;;18.67;;
27003;SDS011;14546;47.590;19.022;2022-11-22T06:55:43;32.90;;;18.73;;
27003;SDS011;14546;47.590;19.022;2022-11-22T06:58:09;30.13;;;20.38;;
27003;SDS011;14546;47.590;19.022;2022-11-22T07:00:35;32.92;;;20.25;;
27003;SDS011;14546;47.590;19.022;2022-11-22T07:03:01;35.05;;;21.13;;
27003;SDS011;14546;47.590;19.022;2022-11-22T07:05:27;31.13;;;20.65;;
27003;SDS011;14546;47.590;19.022;2022-11-22T07:07:55;30.70;;;19.25;;
27003;SDS011;14546;47.590;19.022;2022-11-22T07:10:21;33.85;;;19.42;;
27003;SDS011;14546;47.590;19.022;2022-11-22T07:12:47;32.53;;;20.00;;
27003;SDS011;14546;47.590;19.022;2022-11-22T07:15:13;35.58;;;20.00;;
27003;SDS011;14546;47.590;19.022;2022-11-22T07:17:39;36.67;;;20.08;;
27003;SDS011;14546;47.590;19.022;2022-11-22T07:20:06;29.98;;;20.13;;
27003;SDS011;14546;47.590;19.022;2022-11-22T07:22:32;31.13;;;20.73;;
27003;SDS011;14546;47.590;19.022;2022-11-22T07:24:58;36.72;;;21.50;;
27003;SDS011;14546;47.590;19.022;2022-11-22T07:27:24;35.03;;;21.38;;
27003;SDS011;14546;47.590;19.022;2022-11-22T07:29:50;33.08;;;21.80;;
27003;SDS011;14546;47.590;19.022;2022-11-22T07:32:16;33.90;;;21.42;;
27003;SDS011;14546;47.590;19.022;2022-11-22T07:34:42;31.88;;;20.45;;
27003;SDS011;14546;47.590;19.022;2022-11-22T07:37:08;34.40;;;20.80;;
27003;SDS011;14546;47.590;19.022;2022-11-22T07:39:34;33.58;;;21.30;;
27003;SDS011;14546;47.590;19.022;2022-11-22T07:42:00;28.58;;;19.92;;
27003;SDS011;14546;47.590;19.022;2022-11-22T07:44:26;32.55;;;19.83;;
27003;SDS011;14546;47.590;19.022;2022-11-22T07:46:52;35.03;;;19.17;;
27003;SDS011;14546;47.590;19.022;2022-11-22T07:49:18;31.17;;;18.67;;
27003;SDS011;14546;47.590;19.022;2022-11-22T07:51:44;32.50;;;20.20;;
27003;SDS011;14546;47.590;19.022;2022-11-22T07:54:11;34.95;;;21.10;;
27003;SDS011;14546;47.590;19.022;2022-11-22T07:56:37;36.45;;;20.50;;
27003;SDS011;14546;47.590;19.022;2022-11-22T07:59:03;30.88;;;20.73;;
27003;SDS011;14546;47.590;19.022;2022-11-22T08:01:29;31.67;;;20.08;;
27003;SDS011;14546;47.590;19.022;2022-11-22T08:03:55;31.75;;;19.95;;
27003;SDS011;14546;47.590;19.022;2022-11-22T08:06:21;34.67;;;19.48;;
27003;SDS011;14546;47.590;19.022;2022-11-22T08:08:47;30.52;;;19.17;;
27003;SDS011;14546;47.590;19.022;2022-11-22T08:11:13;34.00;;;19.00;;
27003;SDS011;14546;47.590;19.022;2022-11-22T08:13:39;33.15;;;19.63;;
27003;SDS011;14546;47.590;19.022;2022-11-22T08:16:07;29.45;;;18.92;;
27003;SDS011;14546;47.590;19.022;2022-11-22T08:18:34;33.85;;;21.10;;
27003;SDS011;14546;47.590;19.022;2022-11-22T08:21:04;28.85;;;18.10;;
27003;SDS011;14546;47.590;19.022;2022-11-22T08:23:30;33.45;;;21.13;;
27003;SDS011;14546;47.590;19.022;2022-11-22T08:25:57;31.10;;;20.27;;
27003;SDS011;14546;47.590;19.022;2022-11-22T08:28:23;33.10;;;21.73;;
27003;SDS011;14546;47.590;19.022;2022-11-22T08:30:49;32.92;;;20.60;;
27003;SDS011;14546;47.590;19.022;2022-11-22T08:33:15;36.47;;;21.20;;
27003;SDS011;14546;47.590;19.022;2022-11-22T08:35:41;34.38;;;21.05;;
27003;SDS011;14546;47.590;19.022;2022-11-22T08:38:07;32.70;;;20.42;;
27003;SDS011;14546;47.590;19.022;2022-11-22T08:40:33;33.75;;;19.23;;
27003;SDS011;14546;47.590;19.022;2022-11-22T08:42:59;30.50;;;19.30;;
27003;SDS011;14546;47.590;19.022;2022-11-22T08:45:25;32.03;;;19.85;;
27003;SDS011;14546;47.590;19.022;2022-11-22T08:47:51;28.85;;;18.73;;
27003;SDS011;14546;47.590;19.022;2022-11-22T08:50:17;31.20;;;18.35;;
27003;SDS011;14546;47.590;19.022;2022-11-22T08:52:43;34.78;;;19.70;;
27003;SDS011;14546;47.590;19.022;2022-11-22T08:55:09;38.97;;;20.67;;
27003;SDS011;14546;47.590;19.022;2022-11-22T08:57:35;28.13;;;18.42;;
27003;SDS011;14546;47.590;19.022;2022-11-22T09:00:01;32.83;;;19.00;;
27003;SDS011;14546;47.590;19.022;2022-11-22T09:02:27;27.23;;;17.33;;
27003;SDS011;14546;47.590;19.022;2022-11-22T09:04:54;27.77;;;18.45;;
27003;SDS011;14546;47.590;19.022;2022-11-22T09:07:19;32.22;;;17.75;;
27003;SDS011;14546;47.590;19.022;2022-11-22T09:09:45;28.85;;;17.83;;
27003;SDS011;14546;47.590;19.022;2022-11-22T09:12:11;27.67;;;17.92;;
27003;SDS011;14546;47.590;19.022;2022-11-22T09:14:37;34.47;;;19.50;;
27003;SDS011;14546;47.590;19.022;2022-11-22T09:17:04;32.53;;;18.05;;
27003;SDS011;14546;47.590;19.022;2022-11-22T09:19:30;32.03;;;19.17;;
27003;SDS011;14546;47.590;19.022;2022-11-22T09:21:56;30.58;;;18.67;;
27003;SDS011;14546;47.590;19.022;2022-11-22T09:24:22;34.97;;;18.60;;
27003;SDS011;14546;47.590;19.022;2022-11-22T09:26:48;31.58;;;18.95;;
27003;SDS011;14546;47.590;19.022;2022-11-22T09:29:14;32.80;;;18.77;;
27003;SDS011;14546;47.590;19.022;2022-11-22T09:31:40;30.40;;;19.35;;
27003;SDS011;14546;47.590;19.022;2022-11-22T09:34:06;34.90;;;20.23;;
27003;SDS011;14546;47.590;19.022;2022-11-22T09:36:32;33.40;;;19.02;;
27003;SDS011;14546;47.590;19.022;2022-11-22T09:38:59;39.10;;;19.70;;
27003;SDS011;14546;47.590;19.022;2022-11-22T09:41:32;31.85;;;19.27;;
27003;SDS011;14546;47.590;19.022;2022-11-22T09:51:35;34.40;;;19.58;;
27003;SDS011;14546;47.590;19.022;2022-11-22T09:54:05;31.73;;;18.73;;
27003;SDS011;14546;47.590;19.022;2022-11-22T09:56:31;32.63;;;20.92;;
27003;SDS011;14546;47.590;19.022;2022-11-22T09:59:03;33.40;;;20.23;;
27003;SDS011;14546;47.590;19.022;2022-11-22T10:01:33;31.63;;;20.83;;
27003;SDS011;14546;47.590;19.022;2022-11-22T10:06:36;35.25;;;21.27;;
27003;SDS011;14546;47.590;19.022;2022-11-22T10:09:07;38.53;;;21.13;;
27003;SDS011;14546;47.590;19.022;2022-11-22T10:11:42;43.30;;;23.08;;
27003;SDS011;14546;47.590;19.022;2022-11-22T10:16:39;36.55;;;22.25;;
27003;SDS011;14546;47.590;19.022;2022-11-22T10:19:16;35.78;;;21.58;;
27003;SDS011;14546;47.590;19.022;2022-11-22T10:21:44;35.80;;;21.63;;
27003;SDS011;14546;47.590;19.022;2022-11-22T10:24:13;38.40;;;22.58;;
27003;SDS011;14546;47.590;19.022;2022-11-22T10:26:40;40.85;;;23.75;;
27003;SDS011;14546;47.590;19.022;2022-11-22T10:31:47;39.55;;;23.50;;
27003;SDS011;14546;47.590;19.022;2022-11-22T10:39:24;43.20;;;24.58;;
27003;SDS011;14546;47.590;19.022;2022-11-22T10:44:44;41.63;;;24.85;;
27003;SDS011;14546;47.590;19.022;2022-11-22T10:54:37;43.13;;;25.10;;
27003;SDS011;14546;47.590;19.022;2022-11-22T10:57:11;48.40;;;26.92;;
27003;SDS011;14546;47.590;19.022;2022-11-22T11:04:53;44.53;;;25.65;;
27003;SDS011;14546;47.590;19.022;2022-11-22T11:07:21;46.63;;;27.73;;
27003;SDS011;14546;47.590;19.022;2022-11-22T11:09:55;46.17;;;27.10;;
27003;SDS011;14546;47.590;19.022;2022-11-22T11:12:31;41.10;;;25.92;;
27003;SDS011;14546;47.590;19.022;2022-11-22T11:15:03;50.10;;;27.67;;
27003;SDS011;14546;47.590;19.022;2022-11-22T11:17:31;46.30;;;27.15;;
27003;SDS011;14546;47.590;19.022;2022-11-22T11:19:58;46.17;;;27.38;;
27003;SDS011;14546;47.590;19.022;2022-11-22T11:22:27;47.72;;;27.38;;
27003;SDS011;14546;47.590;19.022;2022-11-22T11:24:55;46.85;;;28.30;;
27003;SDS011;14546;47.590;19.022;2022-11-22T11:27:21;44.10;;;28.20;;
27003;SDS011;14546;47.590;19.022;2022-11-22T11:30:02;44.83;;;27.92;;
27003;SDS011;14546;47.590;19.022;2022-11-22T11:32:29;45.42;;;27.35;;
27003;SDS011;14546;47.590;19.022;2022-11-22T11:35:14;46.30;;;26.65;;
27003;SDS011;14546;47.590;19.022;2022-11-22T11:37:41;56.45;;;28.85;;
27003;SDS011;14546;47.590;19.022;2022-11-22T11:40:26;52.75;;;29.55;;
27003;SDS011;14546;47.590;19.022;2022-11-22T11:45:37;49.28;;;28.20;;
27003;SDS011;14546;47.590;19.022;2022-11-22T11:48:03;49.42;;;28.42;;
27003;SDS011;14546;47.590;19.022;2022-11-22T11:50:29;50.17;;;28.42;;
27003;SDS011;14546;47.590;19.022;2022-11-22T11:52:56;50.72;;;29.08;;
27003;SDS011;14546;47.590;19.022;2022-11-22T11:55:34;47.38;;;28.25;;
27003;SDS011;14546;47.590;19.022;2022-11-22T11:58:01;47.60;;;28.60;;
27003;SDS011;14546;47.590;19.022;2022-11-22T12:00:34;51.80;;;29.83;;
27003;SDS011;14546;47.590;19.022;2022-11-22T12:03:00;54.60;;;30.63;;
27003;SDS011;14546;47.590;19.022;2022-11-22T12:05:30;48.80;;;28.55;;
27003;SDS011;14546;47.590;19.022;2022-11-22T12:07:56;48.13;;;29.45;;
27003;SDS011;14546;47.590;19.022;2022-11-22T12:12:53;57.78;;;30.50;;
27003;SDS011;14546;47.590;19.022;2022-11-22T12:20:44;52.10;;;31.17;;
27003;SDS011;14546;47.590;19.022;2022-11-22T12:25:37;55.63;;;30.83;;
27003;SDS011;14546;47.590;19.022;2022-11-22T12:30:39;57.85;;;32.17;;
27003;SDS011;14546;47.590;19.022;2022-11-22T12:33:07;54.08;;;31.58;;
27003;SDS011;14546;47.590;19.022;2022-11-22T12:35:41;56.08;;;32.47;;
27003;SDS011;14546;47.590;19.022;2022-11-22T12:38:10;55.08;;;30.48;;
27003;SDS011;14546;47.590;19.022;2022-11-22T12:40:42;50.38;;;29.15;;
27003;SDS011;14546;47.590;19.022;2022-11-22T12:46:39;54.75;;;30.30;;
27003;SDS011;14546;47.590;19.022;2022-11-22T12:48:40;49.45;;;30.33;;
27003;SDS011;14546;47.590;19.022;2022-11-22T12:53:50;55.53;;;31.23;;
27003;SDS011;14546;47.590;19.022;2022-11-22T12:58:46;49.10;;;29.38;;
27003;SDS011;14546;47.590;19.022;2022-11-22T13:01:21;55.38;;;31.65;;
27003;SDS011;14546;47.590;19.022;2022-11-22T13:03:53;50.90;;;31.60;;
27003;SDS011;14546;47.590;19.022;2022-11-22T13:06:22;47.35;;;29.02;;
27003;SDS011;14546;47.590;19.022;2022-11-22T13:11:24;50.58;;;30.35;;
27003;SDS011;14546;47.590;19.022;2022-11-22T13:13:52;50.45;;;30.23;;
27003;SDS011;14546;47.590;19.022;2022-11-22T13:16:19;45.95;;;29.10;;
27003;SDS011;14546;47.590;19.022;2022-11-22T13:18:55;53.72;;;29.50;;
27003;SDS011;14546;47.590;19.022;2022-11-22T13:24:15;45.25;;;26.38;;
27003;SDS011;14546;47.590;19.022;2022-11-22T13:29:18;50.42;;;28.17;;
27003;SDS011;14546;47.590;19.022;2022-11-22T13:34:31;41.20;;;24.42;;
27003;SDS011;14546;47.590;19.022;2022-11-22T13:37:08;44.63;;;24.95;;
27003;SDS011;14546;47.590;19.022;2022-11-22T13:39:37;44.78;;;25.88;;
27003;SDS011;14546;47.590;19.022;2022-11-22T13:42:04;44.65;;;24.02;;
27003;SDS011;14546;47.590;19.022;2022-11-22T13:46:58;43.78;;;24.80;;
27003;SDS011;14546;47.590;19.022;2022-11-22T13:52:00;38.65;;;23.70;;
27003;SDS011;14546;47.590;19.022;2022-11-22T13:54:35;41.80;;;23.50;;
27003;SDS011;14546;47.590;19.022;2022-11-22T13:57:03;36.45;;;21.17;;
27003;SDS011;14546;47.590;19.022;2022-11-22T13:59:29;35.85;;;21.73;;
27003;SDS011;14546;47.590;19.022;2022-11-22T14:01:57;32.22;;;20.58;;
27003;SDS011;14546;47.590;19.022;2022-11-22T14:06:51;36.88;;;21.27;;
27003;SDS011;14546;47.590;19.022;2022-11-22T14:22:50;36.92;;;21.42;;
27003;SDS011;14546;47.590;19.022;2022-11-22T14:30:19;31.92;;;19.98;;
27003;SDS011;14546;47.590;19.022;2022-11-22T14:37:55;36.92;;;21.73;;
27003;SDS011;14546;47.590;19.022;2022-11-22T14:40:29;35.80;;;21.65;;
27003;SDS011;14546;47.590;19.022;2022-11-22T14:43:37;35.50;;;21.33;;
27003;SDS011;14546;47.590;19.022;2022-11-22T14:45:52;45.03;;;21.30;;
27003;SDS011;14546;47.590;19.022;2022-11-22T14:50:46;37.10;;;22.60;;
27003;SDS011;14546;47.590;19.022;2022-11-22T14:55:46;40.40;;;22.45;;
27003;SDS011;14546;47.590;19.022;2022-11-22T14:58:14;37.97;;;22.27;;
27003;SDS011;14546;47.590;19.022;2022-11-22T15:06:14;34.38;;;20.83;;
27003;SDS011;14546;47.590;19.022;2022-11-22T15:09:03;36.85;;;20.83;;
27003;SDS011;14546;47.590;19.022;2022-11-22T15:11:35;35.00;;;20.73;;
27003;SDS011;14546;47.590;19.022;2022-11-22T15:14:11;35.40;;;21.60;;
27003;SDS011;14546;47.590;19.022;2022-11-22T15:16:42;36.15;;;21.77;;
27003;SDS011;14546;47.590;19.022;2022-11-22T15:22:03;33.03;;;20.95;;
27003;SDS011;14546;47.590;19.022;2022-11-22T15:24:29;36.17;;;20.42;;
27003;SDS011;14546;47.590;19.022;2022-11-22T15:26:55;34.40;;;20.67;;
27003;SDS011;14546;47.590;19.022;2022-11-22T15:29:22;34.70;;;20.98;;
27003;SDS011;14546;47.590;19.022;2022-11-22T15:31:48;38.92;;;21.80;;
27003;SDS011;14546;47.590;19.022;2022-11-22T15:34:16;32.90;;;20.20;;
27003;SDS011;14546;47.590;19.022;2022-11-22T15:39:27;32.47;;;20.25;;
27003;SDS011;14546;47.590;19.022;2022-11-22T15:41:55;35.65;;;20.48;;
27003;SDS011;14546;47.590;19.022;2022-11-22T15:44:22;40.75;;;20.85;;
27003;SDS011;14546;47.590;19.022;2022-11-22T15:46:48;33.35;;;20.63;;
27003;SDS011;14546;47.590;19.022;2022-11-22T15:49:15;34.20;;;21.08;;
27003;SDS011;14546;47.590;19.022;2022-11-22T15:51:55;34.22;;;20.63;;
27003;SDS011;14546;47.590;19.022;2022-11-22T15:54:23;32.75;;;19.42;;
27003;SDS011;14546;47.590;19.022;2022-11-22T16:01:51;32.63;;;20.52;;
27003;SDS011;14546;47.590;19.022;2022-11-22T16:06:54;31.70;;;19.52;;
27003;SDS011;14546;47.590;19.022;2022-11-22T16:09:32;30.98;;;19.13;;
27003;SDS011;14546;47.590;19.022;2022-11-22T16:11:58;32.47;;;18.70;;
27003;SDS011;14546;47.590;19.022;2022-11-22T16:14:39;31.25;;;19.38;;
27003;SDS011;14546;47.590;19.022;2022-11-22T16:19:50;36.42;;;19.55;;